sensor_id;sensor_type;location;lat;lon;timestamp;temperature;humidity
5705;DHT22;2877;48.238;11.160;2023-11-19T00:00:35;5.80;99.90
5705;DHT22;2877;48.238;11.160;2023-11-19T00:03:01;5.90;99.90
5705;DHT22;2877;48.238;11.160;2023-11-19T00:05:27;5.90;99.90
5705;DHT22;2877;48.238;11.160;2023-11-19T00:07:53;5.90;99.90
5705;DHT22;2877;48.238;11.160;2023-11-19T00:10:18;6.00;99.90
5705;DHT22;2877;48.238;11.160;2023-11-19T00:12:46;6.10;99.90
5705;DHT22;2877;48.238;11.160;2023-11-19T00:15:12;6.10;99.90
5705;DHT22;2877;48.238;11.160;2023-11-19T00:17:39;6.10;99.90
5705;DHT22;2877;48.238;11.160;2023-11-19T00:20:06;6.20;99.90
5705;DHT22;2877;48.238;11.160;2023-11-19T00:22:33;6.20;99.90
5705;DHT22;2877;48.238;11.160;2023-11-19T00:24:58;6.30;99.90
5705;DHT22;2877;48.238;11.160;2023-11-19T00:27:25;6.30;99.90
5705;DHT22;2877;48.238;11.160;2023-11-19T00:29:50;6.30;99.90
5705;DHT22;2877;48.238;11.160;2023-11-19T00:32:16;6.30;99.90
5705;DHT22;2877;48.238;11.160;2023-11-19T00:34:46;6.40;99.90
5705;DHT22;2877;48.238;11.160;2023-11-19T00:37:13;6.40;99.90
5705;DHT22;2877;48.238;11.160;2023-11-19T00:39:39;6.50;99.90
5705;DHT22;2877;48.238;11.160;2023-11-19T00:42:05;6.50;99.90
5705;DHT22;2877;48.238;11.160;2023-11-19T00:44:31;6.50;99.90
5705;DHT22;2877;48.238;11.160;2023-11-19T00:46:56;6.60;99.90
5705;DHT22;2877;48.238;11.160;2023-11-19T00:49:22;6.60;99.90
5705;DHT22;2877;48.238;11.160;2023-11-19T00:51:47;6.60;99.90
5705;DHT22;2877;48.238;11.160;2023-11-19T00:54:13;6.70;99.90
5705;DHT22;2877;48.238;11.160;2023-11-19T00:56:38;6.70;99.90
5705;DHT22;2877;48.238;11.160;2023-11-19T00:59:05;6.80;99.90
5705;DHT22;2877;48.238;11.160;2023-11-19T01:01:30;6.80;99.90
5705;DHT22;2877;48.238;11.160;2023-11-19T01:03:56;6.80;99.90
5705;DHT22;2877;48.238;11.160;2023-11-19T01:06:31;6.80;99.90
5705;DHT22;2877;48.238;11.160;2023-11-19T01:08:57;6.90;99.90
5705;DHT22;2877;48.238;11.160;2023-11-19T01:11:23;6.90;99.90
5705;DHT22;2877;48.238;11.160;2023-11-19T01:13:49;6.90;99.90
5705;DHT22;2877;48.238;11.160;2023-11-19T01:16:15;7.00;99.90
5705;DHT22;2877;48.238;11.160;2023-11-19T01:18:41;7.00;99.90
5705;DHT22;2877;48.238;11.160;2023-11-19T01:21:06;7.00;99.90
5705;DHT22;2877;48.238;11.160;2023-11-19T01:23:32;7.10;99.90
5705;DHT22;2877;48.238;11.160;2023-11-19T01:26:00;7.10;99.90
5705;DHT22;2877;48.238;11.160;2023-11-19T01:28:26;7.20;99.90
5705;DHT22;2877;48.238;11.160;2023-11-19T01:30:51;7.30;99.90
5705;DHT22;2877;48.238;11.160;2023-11-19T01:33:17;7.30;99.90
5705;DHT22;2877;48.238;11.160;2023-11-19T01:35:43;7.40;99.90
5705;DHT22;2877;48.238;11.160;2023-11-19T01:38:08;7.50;99.90
5705;DHT22;2877;48.238;11.160;2023-11-19T01:40:34;7.50;99.90
5705;DHT22;2877;48.238;11.160;2023-11-19T01:43:02;7.60;99.90
5705;DHT22;2877;48.238;11.160;2023-11-19T01:45:28;7.60;99.90
5705;DHT22;2877;48.238;11.160;2023-11-19T01:47:59;7.70;99.90
5705;DHT22;2877;48.238;11.160;2023-11-19T01:50:25;7.70;99.90
5705;DHT22;2877;48.238;11.160;2023-11-19T01:52:55;7.80;99.90
5705;DHT22;2877;48.238;11.160;2023-11-19T01:55:24;7.80;99.90
5705;DHT22;2877;48.238;11.160;2023-11-19T01:57:51;7.80;99.90
5705;DHT22;2877;48.238;11.160;2023-11-19T02:00:18;7.80;99.90
5705;DHT22;2877;48.238;11.160;2023-11-19T02:02:46;7.80;99.90
5705;DHT22;2877;48.238;11.160;2023-11-19T02:05:12;7.80;99.90
5705;DHT22;2877;48.238;11.160;2023-11-19T02:07:39;7.80;99.90
5705;DHT22;2877;48.238;11.160;2023-11-19T02:10:05;7.80;99.90
5705;DHT22;2877;48.238;11.160;2023-11-19T02:12:31;7.80;99.90
5705;DHT22;2877;48.238;11.160;2023-11-19T02:15:01;7.80;99.90
5705;DHT22;2877;48.238;11.160;2023-11-19T02:17:31;7.80;99.90
5705;DHT22;2877;48.238;11.160;2023-11-19T02:19:57;7.80;99.90
5705;DHT22;2877;48.238;11.160;2023-11-19T02:22:24;7.80;99.90
5705;DHT22;2877;48.238;11.160;2023-11-19T02:24:53;7.80;99.90
5705;DHT22;2877;48.238;11.160;2023-11-19T02:30:12;7.90;99.90
5705;DHT22;2877;48.238;11.160;2023-11-19T02:32:42;7.90;99.90
5705;DHT22;2877;48.238;11.160;2023-11-19T02:35:08;7.90;99.90
5705;DHT22;2877;48.238;11.160;2023-11-19T02:37:34;7.90;99.90
5705;DHT22;2877;48.238;11.160;2023-11-19T02:40:00;7.90;99.90
5705;DHT22;2877;48.238;11.160;2023-11-19T02:42:29;7.90;99.90
5705;DHT22;2877;48.238;11.160;2023-11-19T02:44:55;7.90;99.90
5705;DHT22;2877;48.238;11.160;2023-11-19T02:47:21;8.00;99.90
5705;DHT22;2877;48.238;11.160;2023-11-19T02:49:49;8.00;99.90
5705;DHT22;2877;48.238;11.160;2023-11-19T02:52:15;8.00;99.90
5705;DHT22;2877;48.238;11.160;2023-11-19T02:54:41;8.00;99.90
5705;DHT22;2877;48.238;11.160;2023-11-19T02:57:07;8.00;99.90
5705;DHT22;2877;48.238;11.160;2023-11-19T02:59:38;8.10;99.90
5705;DHT22;2877;48.238;11.160;2023-11-19T03:02:08;8.10;99.90
5705;DHT22;2877;48.238;11.160;2023-11-19T03:04:37;8.00;99.90
5705;DHT22;2877;48.238;11.160;2023-11-19T03:07:05;8.10;99.90
5705;DHT22;2877;48.238;11.160;2023-11-19T03:09:32;8.10;99.90
5705;DHT22;2877;48.238;11.160;2023-11-19T03:11:59;8.10;99.90
5705;DHT22;2877;48.238;11.160;2023-11-19T03:14:24;8.10;99.90
5705;DHT22;2877;48.238;11.160;2023-11-19T03:16:50;8.10;99.90
5705;DHT22;2877;48.238;11.160;2023-11-19T03:19:16;8.10;99.90
5705;DHT22;2877;48.238;11.160;2023-11-19T03:21:41;8.10;99.90
5705;DHT22;2877;48.238;11.160;2023-11-19T03:24:07;8.20;99.90
5705;DHT22;2877;48.238;11.160;2023-11-19T03:26:34;8.20;99.90
5705;DHT22;2877;48.238;11.160;2023-11-19T03:28:59;8.20;99.90
5705;DHT22;2877;48.238;11.160;2023-11-19T03:31:25;8.20;99.90
5705;DHT22;2877;48.238;11.160;2023-11-19T03:33:51;8.20;99.90
5705;DHT22;2877;48.238;11.160;2023-11-19T03:36:16;8.20;99.90
5705;DHT22;2877;48.238;11.160;2023-11-19T03:38:42;8.20;99.90
5705;DHT22;2877;48.238;11.160;2023-11-19T03:41:12;8.30;99.90
5705;DHT22;2877;48.238;11.160;2023-11-19T03:43:39;8.20;99.90
5705;DHT22;2877;48.238;11.160;2023-11-19T03:46:05;8.30;99.90
5705;DHT22;2877;48.238;11.160;2023-11-19T03:48:40;8.30;99.90
5705;DHT22;2877;48.238;11.160;2023-11-19T03:51:05;8.30;99.90
5705;DHT22;2877;48.238;11.160;2023-11-19T03:53:31;8.30;99.90
5705;DHT22;2877;48.238;11.160;2023-11-19T03:55:57;8.40;99.90
5705;DHT22;2877;48.238;11.160;2023-11-19T03:58:22;8.40;99.90
5705;DHT22;2877;48.238;11.160;2023-11-19T04:00:48;8.40;99.90
5705;DHT22;2877;48.238;11.160;2023-11-19T04:03:13;8.40;99.90
5705;DHT22;2877;48.238;11.160;2023-11-19T04:05:39;8.40;99.90
5705;DHT22;2877;48.238;11.160;2023-11-19T04:08:04;8.40;99.90
5705;DHT22;2877;48.238;11.160;2023-11-19T04:10:30;8.40;99.90
5705;DHT22;2877;48.238;11.160;2023-11-19T04:12:56;8.40;99.90
5705;DHT22;2877;48.238;11.160;2023-11-19T04:15:21;8.50;99.90
5705;DHT22;2877;48.238;11.160;2023-11-19T04:17:47;8.50;99.90
5705;DHT22;2877;48.238;11.160;2023-11-19T04:20:13;8.50;99.90
5705;DHT22;2877;48.238;11.160;2023-11-19T04:22:39;8.50;99.90
5705;DHT22;2877;48.238;11.160;2023-11-19T04:25:05;8.50;99.90
5705;DHT22;2877;48.238;11.160;2023-11-19T04:27:31;8.60;99.90
5705;DHT22;2877;48.238;11.160;2023-11-19T04:29:56;8.60;99.90
5705;DHT22;2877;48.238;11.160;2023-11-19T04:32:22;8.60;99.90
5705;DHT22;2877;48.238;11.160;2023-11-19T04:34:47;8.70;99.90
5705;DHT22;2877;48.238;11.160;2023-11-19T04:37:13;8.60;99.90
5705;DHT22;2877;48.238;11.160;2023-11-19T04:39:38;8.70;99.90
5705;DHT22;2877;48.238;11.160;2023-11-19T04:42:04;8.60;99.90
5705;DHT22;2877;48.238;11.160;2023-11-19T04:44:31;8.70;99.90
5705;DHT22;2877;48.238;11.160;2023-11-19T04:46:57;8.60;99.90
5705;DHT22;2877;48.238;11.160;2023-11-19T04:49:22;8.60;99.90
5705;DHT22;2877;48.238;11.160;2023-11-19T04:51:48;8.70;99.90
5705;DHT22;2877;48.238;11.160;2023-11-19T04:54:14;8.70;99.90
5705;DHT22;2877;48.238;11.160;2023-11-19T04:56:40;8.70;99.90
5705;DHT22;2877;48.238;11.160;2023-11-19T04:59:05;8.80;99.90
5705;DHT22;2877;48.238;11.160;2023-11-19T05:01:32;8.70;99.90
5705;DHT22;2877;48.238;11.160;2023-11-19T05:03:58;8.70;99.90
5705;DHT22;2877;48.238;11.160;2023-11-19T05:06:28;8.70;99.90
5705;DHT22;2877;48.238;11.160;2023-11-19T05:08:55;8.80;99.90
5705;DHT22;2877;48.238;11.160;2023-11-19T05:11:20;8.80;99.90
5705;DHT22;2877;48.238;11.160;2023-11-19T05:13:46;8.70;99.90
5705;DHT22;2877;48.238;11.160;2023-11-19T05:16:12;8.80;99.90
5705;DHT22;2877;48.238;11.160;2023-11-19T05:18:41;8.80;99.90
5705;DHT22;2877;48.238;11.160;2023-11-19T05:21:06;8.80;99.90
5705;DHT22;2877;48.238;11.160;2023-11-19T05:23:33;8.80;99.90
5705;DHT22;2877;48.238;11.160;2023-11-19T05:26:00;8.80;99.90
5705;DHT22;2877;48.238;11.160;2023-11-19T05:28:26;8.70;99.90
5705;DHT22;2877;48.238;11.160;2023-11-19T05:30:51;8.80;99.90
5705;DHT22;2877;48.238;11.160;2023-11-19T05:33:17;8.80;99.90
5705;DHT22;2877;48.238;11.160;2023-11-19T05:35:42;8.80;99.90
5705;DHT22;2877;48.238;11.160;2023-11-19T05:38:08;8.80;99.90
5705;DHT22;2877;48.238;11.160;2023-11-19T05:40:35;8.70;99.90
5705;DHT22;2877;48.238;11.160;2023-11-19T05:43:00;8.70;99.90
5705;DHT22;2877;48.238;11.160;2023-11-19T05:45:26;8.70;99.90
5705;DHT22;2877;48.238;11.160;2023-11-19T05:47:52;8.70;99.90
5705;DHT22;2877;48.238;11.160;2023-11-19T05:50:18;8.70;99.90
5705;DHT22;2877;48.238;11.160;2023-11-19T05:52:44;8.70;99.90
5705;DHT22;2877;48.238;11.160;2023-11-19T05:55:09;8.70;99.90
5705;DHT22;2877;48.238;11.160;2023-11-19T05:57:38;8.70;99.90
5705;DHT22;2877;48.238;11.160;2023-11-19T06:00:06;8.70;99.90
5705;DHT22;2877;48.238;11.160;2023-11-19T06:02:35;8.70;99.90
5705;DHT22;2877;48.238;11.160;2023-11-19T06:05:02;8.70;99.90
5705;DHT22;2877;48.238;11.160;2023-11-19T06:07:31;8.70;99.90
5705;DHT22;2877;48.238;11.160;2023-11-19T06:09:56;8.70;99.90
5705;DHT22;2877;48.238;11.160;2023-11-19T06:12:22;8.70;99.90
5705;DHT22;2877;48.238;11.160;2023-11-19T06:14:47;8.70;99.90
5705;DHT22;2877;48.238;11.160;2023-11-19T06:17:13;8.80;99.90
5705;DHT22;2877;48.238;11.160;2023-11-19T06:19:39;8.80;99.90
5705;DHT22;2877;48.238;11.160;2023-11-19T06:22:04;8.80;99.90
5705;DHT22;2877;48.238;11.160;2023-11-19T06:24:30;8.80;99.90
5705;DHT22;2877;48.238;11.160;2023-11-19T06:26:55;8.80;99.90
5705;DHT22;2877;48.238;11.160;2023-11-19T06:29:21;8.80;99.90
5705;DHT22;2877;48.238;11.160;2023-11-19T06:31:47;8.80;99.90
5705;DHT22;2877;48.238;11.160;2023-11-19T06:34:15;8.90;99.90
5705;DHT22;2877;48.238;11.160;2023-11-19T06:36:41;8.90;99.90
5705;DHT22;2877;48.238;11.160;2023-11-19T06:39:09;8.90;99.90
5705;DHT22;2877;48.238;11.160;2023-11-19T06:41:34;8.90;99.90
5705;DHT22;2877;48.238;11.160;2023-11-19T06:44:00;8.90;99.90
5705;DHT22;2877;48.238;11.160;2023-11-19T06:46:25;9.00;99.90
5705;DHT22;2877;48.238;11.160;2023-11-19T06:48:51;9.00;99.90
5705;DHT22;2877;48.238;11.160;2023-11-19T06:51:16;9.00;99.90
5705;DHT22;2877;48.238;11.160;2023-11-19T06:53:44;9.10;99.90
5705;DHT22;2877;48.238;11.160;2023-11-19T06:56:21;9.10;99.90
5705;DHT22;2877;48.238;11.160;2023-11-19T06:58:47;9.10;99.90
5705;DHT22;2877;48.238;11.160;2023-11-19T07:01:14;9.20;99.90
5705;DHT22;2877;48.238;11.160;2023-11-19T07:03:40;9.20;99.90
5705;DHT22;2877;48.238;11.160;2023-11-19T07:06:06;9.30;99.90
5705;DHT22;2877;48.238;11.160;2023-11-19T07:08:31;9.20;99.90
5705;DHT22;2877;48.238;11.160;2023-11-19T07:10:57;9.30;99.90
5705;DHT22;2877;48.238;11.160;2023-11-19T07:13:23;9.30;99.90
5705;DHT22;2877;48.238;11.160;2023-11-19T07:15:48;9.40;99.90
5705;DHT22;2877;48.238;11.160;2023-11-19T07:18:14;9.40;99.90
5705;DHT22;2877;48.238;11.160;2023-11-19T07:20:40;9.40;99.90
5705;DHT22;2877;48.238;11.160;2023-11-19T07:23:06;9.40;99.90
5705;DHT22;2877;48.238;11.160;2023-11-19T07:25:31;9.40;99.90
5705;DHT22;2877;48.238;11.160;2023-11-19T07:27:57;9.50;99.90
5705;DHT22;2877;48.238;11.160;2023-11-19T07:30:22;9.50;99.90
5705;DHT22;2877;48.238;11.160;2023-11-19T07:32:48;9.60;99.90
5705;DHT22;2877;48.238;11.160;2023-11-19T07:35:14;9.60;99.90
5705;DHT22;2877;48.238;11.160;2023-11-19T07:37:41;9.70;99.90
5705;DHT22;2877;48.238;11.160;2023-11-19T07:40:08;9.70;99.90
5705;DHT22;2877;48.238;11.160;2023-11-19T07:42:33;9.70;99.90
5705;DHT22;2877;48.238;11.160;2023-11-19T07:44:59;9.80;99.90
5705;DHT22;2877;48.238;11.160;2023-11-19T07:47:24;9.80;99.90
5705;DHT22;2877;48.238;11.160;2023-11-19T07:49:50;9.80;99.90
5705;DHT22;2877;48.238;11.160;2023-11-19T07:52:16;9.90;99.90
5705;DHT22;2877;48.238;11.160;2023-11-19T07:54:41;9.90;99.90
5705;DHT22;2877;48.238;11.160;2023-11-19T07:57:07;9.90;99.90
5705;DHT22;2877;48.238;11.160;2023-11-19T07:59:33;10.00;99.90
5705;DHT22;2877;48.238;11.160;2023-11-19T08:01:58;10.00;99.90
5705;DHT22;2877;48.238;11.160;2023-11-19T08:04:24;10.00;99.90
5705;DHT22;2877;48.238;11.160;2023-11-19T08:06:49;10.10;99.90
5705;DHT22;2877;48.238;11.160;2023-11-19T08:09:15;10.10;99.90
5705;DHT22;2877;48.238;11.160;2023-11-19T08:11:41;10.20;99.90
5705;DHT22;2877;48.238;11.160;2023-11-19T08:14:07;10.20;99.90
5705;DHT22;2877;48.238;11.160;2023-11-19T08:16:33;10.20;99.90
5705;DHT22;2877;48.238;11.160;2023-11-19T08:18:59;10.30;99.90
5705;DHT22;2877;48.238;11.160;2023-11-19T08:21:25;10.30;99.90
5705;DHT22;2877;48.238;11.160;2023-11-19T08:23:52;10.30;99.90
5705;DHT22;2877;48.238;11.160;2023-11-19T08:26:18;10.40;99.90
5705;DHT22;2877;48.238;11.160;2023-11-19T08:28:43;10.40;99.90
5705;DHT22;2877;48.238;11.160;2023-11-19T08:31:09;10.40;99.90
5705;DHT22;2877;48.238;11.160;2023-11-19T08:33:34;10.50;99.90
5705;DHT22;2877;48.238;11.160;2023-11-19T08:36:00;10.50;99.90
5705;DHT22;2877;48.238;11.160;2023-11-19T08:38:26;10.50;99.90
5705;DHT22;2877;48.238;11.160;2023-11-19T08:40:52;10.60;99.90
5705;DHT22;2877;48.238;11.160;2023-11-19T08:43:17;10.60;99.90
5705;DHT22;2877;48.238;11.160;2023-11-19T08:45:43;10.60;99.90
5705;DHT22;2877;48.238;11.160;2023-11-19T08:48:09;10.70;99.90
5705;DHT22;2877;48.238;11.160;2023-11-19T08:50:34;10.70;99.90
5705;DHT22;2877;48.238;11.160;2023-11-19T08:53:00;10.70;99.90
5705;DHT22;2877;48.238;11.160;2023-11-19T08:55:25;10.70;99.90
5705;DHT22;2877;48.238;11.160;2023-11-19T08:57:51;10.80;99.90
5705;DHT22;2877;48.238;11.160;2023-11-19T09:00:17;10.80;99.90
5705;DHT22;2877;48.238;11.160;2023-11-19T09:02:43;10.80;99.90
5705;DHT22;2877;48.238;11.160;2023-11-19T09:05:09;10.80;99.90
5705;DHT22;2877;48.238;11.160;2023-11-19T09:07:34;10.80;99.90
5705;DHT22;2877;48.238;11.160;2023-11-19T09:10:00;10.90;99.90
5705;DHT22;2877;48.238;11.160;2023-11-19T09:12:25;10.90;99.90
5705;DHT22;2877;48.238;11.160;2023-11-19T09:14:51;10.90;99.90
5705;DHT22;2877;48.238;11.160;2023-11-19T09:17:16;11.00;99.90
5705;DHT22;2877;48.238;11.160;2023-11-19T09:19:43;11.00;99.90
5705;DHT22;2877;48.238;11.160;2023-11-19T09:22:08;11.10;99.90
5705;DHT22;2877;48.238;11.160;2023-11-19T09:24:34;11.00;99.90
5705;DHT22;2877;48.238;11.160;2023-11-19T09:27:00;11.00;99.90
5705;DHT22;2877;48.238;11.160;2023-11-19T09:29:25;10.90;99.90
5705;DHT22;2877;48.238;11.160;2023-11-19T09:31:51;10.90;99.90
5705;DHT22;2877;48.238;11.160;2023-11-19T09:34:17;10.90;99.90
5705;DHT22;2877;48.238;11.160;2023-11-19T09:36:42;11.00;99.90
5705;DHT22;2877;48.238;11.160;2023-11-19T09:39:12;11.10;99.90
5705;DHT22;2877;48.238;11.160;2023-11-19T09:41:40;11.10;99.90
5705;DHT22;2877;48.238;11.160;2023-11-19T09:44:06;11.20;99.90
5705;DHT22;2877;48.238;11.160;2023-11-19T09:46:32;11.30;99.90
5705;DHT22;2877;48.238;11.160;2023-11-19T09:48:58;11.40;99.90
5705;DHT22;2877;48.238;11.160;2023-11-19T09:51:24;11.50;99.90
5705;DHT22;2877;48.238;11.160;2023-11-19T09:53:50;11.60;99.90
5705;DHT22;2877;48.238;11.160;2023-11-19T09:56:16;11.60;99.90
5705;DHT22;2877;48.238;11.160;2023-11-19T09:58:42;11.60;99.90
5705;DHT22;2877;48.238;11.160;2023-11-19T10:01:08;11.60;99.90
5705;DHT22;2877;48.238;11.160;2023-11-19T10:03:37;11.60;99.90
5705;DHT22;2877;48.238;11.160;2023-11-19T10:06:08;11.70;99.90
5705;DHT22;2877;48.238;11.160;2023-11-19T10:08:37;11.80;99.90
5705;DHT22;2877;48.238;11.160;2023-11-19T10:11:05;11.80;99.90
5705;DHT22;2877;48.238;11.160;2023-11-19T10:13:35;11.80;99.90
5705;DHT22;2877;48.238;11.160;2023-11-19T10:16:07;11.80;99.90
5705;DHT22;2877;48.238;11.160;2023-11-19T10:18:33;11.70;99.90
5705;DHT22;2877;48.238;11.160;2023-11-19T10:21:06;11.70;99.90
5705;DHT22;2877;48.238;11.160;2023-11-19T10:23:54;11.80;99.90
5705;DHT22;2877;48.238;11.160;2023-11-19T10:26:22;11.90;99.90
5705;DHT22;2877;48.238;11.160;2023-11-19T10:28:49;12.00;99.90
5705;DHT22;2877;48.238;11.160;2023-11-19T10:31:18;12.10;99.90
5705;DHT22;2877;48.238;11.160;2023-11-19T10:33:45;12.20;99.90
5705;DHT22;2877;48.238;11.160;2023-11-19T10:36:14;12.10;99.90
5705;DHT22;2877;48.238;11.160;2023-11-19T10:38:40;12.10;99.90
5705;DHT22;2877;48.238;11.160;2023-11-19T10:41:06;12.20;99.90
5705;DHT22;2877;48.238;11.160;2023-11-19T10:43:45;12.30;99.90
5705;DHT22;2877;48.238;11.160;2023-11-19T10:46:12;12.50;99.90
5705;DHT22;2877;48.238;11.160;2023-11-19T10:48:38;12.70;99.90
5705;DHT22;2877;48.238;11.160;2023-11-19T10:51:06;12.90;99.90
5705;DHT22;2877;48.238;11.160;2023-11-19T10:53:37;12.90;99.90
5705;DHT22;2877;48.238;11.160;2023-11-19T10:56:05;13.00;99.90
5705;DHT22;2877;48.238;11.160;2023-11-19T10:58:35;13.10;99.90
5705;DHT22;2877;48.238;11.160;2023-11-19T11:01:09;13.30;99.90
5705;DHT22;2877;48.238;11.160;2023-11-19T11:03:40;13.20;99.90
5705;DHT22;2877;48.238;11.160;2023-11-19T11:06:06;13.10;99.90
5705;DHT22;2877;48.238;11.160;2023-11-19T11:08:32;13.00;99.90
5705;DHT22;2877;48.238;11.160;2023-11-19T11:11:02;13.00;99.90
5705;DHT22;2877;48.238;11.160;2023-11-19T11:13:30;13.00;99.90
5705;DHT22;2877;48.238;11.160;2023-11-19T11:15:57;13.00;99.90
5705;DHT22;2877;48.238;11.160;2023-11-19T11:18:26;13.00;99.90
5705;DHT22;2877;48.238;11.160;2023-11-19T11:21:13;13.10;99.90
5705;DHT22;2877;48.238;11.160;2023-11-19T11:32:43;13.50;99.90
5705;DHT22;2877;48.238;11.160;2023-11-19T11:37:47;13.20;99.90
5705;DHT22;2877;48.238;11.160;2023-11-19T11:40:15;13.10;99.90
5705;DHT22;2877;48.238;11.160;2023-11-19T11:42:41;13.10;99.90
5705;DHT22;2877;48.238;11.160;2023-11-19T11:45:11;13.10;99.90
5705;DHT22;2877;48.238;11.160;2023-11-19T11:50:11;13.20;99.90
5705;DHT22;2877;48.238;11.160;2023-11-19T11:55:28;13.30;99.90
5705;DHT22;2877;48.238;11.160;2023-11-19T11:57:55;13.30;99.90
5705;DHT22;2877;48.238;11.160;2023-11-19T12:00:27;13.30;99.90
5705;DHT22;2877;48.238;11.160;2023-11-19T12:02:56;13.50;99.90
5705;DHT22;2877;48.238;11.160;2023-11-19T12:05:23;13.60;99.90
5705;DHT22;2877;48.238;11.160;2023-11-19T12:08:15;13.70;99.90
5705;DHT22;2877;48.238;11.160;2023-11-19T12:10:47;13.70;99.90
5705;DHT22;2877;48.238;11.160;2023-11-19T12:13:14;13.70;99.90
5705;DHT22;2877;48.238;11.160;2023-11-19T12:18:23;13.60;99.90
5705;DHT22;2877;48.238;11.160;2023-11-19T12:20:50;13.80;99.90
5705;DHT22;2877;48.238;11.160;2023-11-19T12:23:15;14.00;99.90
5705;DHT22;2877;48.238;11.160;2023-11-19T12:25:41;14.20;99.90
5705;DHT22;2877;48.238;11.160;2023-11-19T12:28:12;14.10;99.90
5705;DHT22;2877;48.238;11.160;2023-11-19T12:30:38;14.10;99.90
5705;DHT22;2877;48.238;11.160;2023-11-19T12:33:11;14.10;99.90
5705;DHT22;2877;48.238;11.160;2023-11-19T12:35:41;14.00;99.90
5705;DHT22;2877;48.238;11.160;2023-11-19T12:38:07;14.00;99.90
5705;DHT22;2877;48.238;11.160;2023-11-19T12:40:32;14.00;99.90
5705;DHT22;2877;48.238;11.160;2023-11-19T12:42:58;13.90;99.90
5705;DHT22;2877;48.238;11.160;2023-11-19T12:45:34;13.90;99.90
5705;DHT22;2877;48.238;11.160;2023-11-19T12:48:06;13.80;99.90
5705;DHT22;2877;48.238;11.160;2023-11-19T12:53:19;13.50;99.90
5705;DHT22;2877;48.238;11.160;2023-11-19T12:55:44;13.40;99.90
5705;DHT22;2877;48.238;11.160;2023-11-19T12:58:10;13.40;99.90
5705;DHT22;2877;48.238;11.160;2023-11-19T13:00:36;13.30;99.90
5705;DHT22;2877;48.238;11.160;2023-11-19T13:03:01;13.20;99.90
5705;DHT22;2877;48.238;11.160;2023-11-19T13:05:32;13.20;99.90
5705;DHT22;2877;48.238;11.160;2023-11-19T13:08:08;13.20;99.90
5705;DHT22;2877;48.238;11.160;2023-11-19T13:10:53;13.10;99.90
5705;DHT22;2877;48.238;11.160;2023-11-19T13:13:19;13.10;99.90
5705;DHT22;2877;48.238;11.160;2023-11-19T13:15:45;13.00;99.90
5705;DHT22;2877;48.238;11.160;2023-11-19T13:18:11;13.00;99.90
5705;DHT22;2877;48.238;11.160;2023-11-19T13:20:37;13.10;99.90
5705;DHT22;2877;48.238;11.160;2023-11-19T13:23:05;13.10;99.90
5705;DHT22;2877;48.238;11.160;2023-11-19T13:25:31;13.10;99.90
5705;DHT22;2877;48.238;11.160;2023-11-19T13:27:57;13.10;99.90
5705;DHT22;2877;48.238;11.160;2023-11-19T13:30:23;13.20;99.90
5705;DHT22;2877;48.238;11.160;2023-11-19T13:32:49;13.20;99.90
5705;DHT22;2877;48.238;11.160;2023-11-19T13:35:16;13.20;99.90
5705;DHT22;2877;48.238;11.160;2023-11-19T13:37:42;13.20;99.90
5705;DHT22;2877;48.238;11.160;2023-11-19T13:40:08;13.10;99.90
5705;DHT22;2877;48.238;11.160;2023-11-19T13:42:40;13.00;99.90
5705;DHT22;2877;48.238;11.160;2023-11-19T13:45:15;13.00;99.90
5705;DHT22;2877;48.238;11.160;2023-11-19T13:47:45;13.00;99.90
5705;DHT22;2877;48.238;11.160;2023-11-19T13:50:16;12.90;99.90
5705;DHT22;2877;48.238;11.160;2023-11-19T13:52:43;12.90;99.90
5705;DHT22;2877;48.238;11.160;2023-11-19T13:55:12;12.80;99.90
5705;DHT22;2877;48.238;11.160;2023-11-19T13:57:39;12.70;99.90
5705;DHT22;2877;48.238;11.160;2023-11-19T14:00:07;12.70;99.90
5705;DHT22;2877;48.238;11.160;2023-11-19T14:02:36;12.70;99.90
5705;DHT22;2877;48.238;11.160;2023-11-19T14:05:03;12.70;99.90
5705;DHT22;2877;48.238;11.160;2023-11-19T14:07:28;12.80;99.90
5705;DHT22;2877;48.238;11.160;2023-11-19T14:09:54;12.90;99.90
5705;DHT22;2877;48.238;11.160;2023-11-19T14:12:20;13.00;99.90
5705;DHT22;2877;48.238;11.160;2023-11-19T14:14:45;13.00;99.90
5705;DHT22;2877;48.238;11.160;2023-11-19T14:17:11;13.00;99.90
5705;DHT22;2877;48.238;11.160;2023-11-19T14:19:37;13.00;99.90
5705;DHT22;2877;48.238;11.160;2023-11-19T14:22:04;13.00;99.90
5705;DHT22;2877;48.238;11.160;2023-11-19T14:24:30;13.10;99.90
5705;DHT22;2877;48.238;11.160;2023-11-19T14:26:56;13.00;99.90
5705;DHT22;2877;48.238;11.160;2023-11-19T14:29:24;12.90;99.90
5705;DHT22;2877;48.238;11.160;2023-11-19T14:31:51;12.80;99.90
5705;DHT22;2877;48.238;11.160;2023-11-19T14:34:17;12.80;99.90
5705;DHT22;2877;48.238;11.160;2023-11-19T14:36:44;12.80;99.90
5705;DHT22;2877;48.238;11.160;2023-11-19T14:39:10;12.70;99.90
5705;DHT22;2877;48.238;11.160;2023-11-19T14:41:35;12.60;99.90
5705;DHT22;2877;48.238;11.160;2023-11-19T14:44:01;12.60;99.90
5705;DHT22;2877;48.238;11.160;2023-11-19T14:46:28;12.50;99.90
5705;DHT22;2877;48.238;11.160;2023-11-19T14:48:54;12.50;99.90
5705;DHT22;2877;48.238;11.160;2023-11-19T14:51:19;12.40;99.90
5705;DHT22;2877;48.238;11.160;2023-11-19T14:53:46;12.30;99.90
5705;DHT22;2877;48.238;11.160;2023-11-19T14:56:11;12.30;99.90
5705;DHT22;2877;48.238;11.160;2023-11-19T14:58:40;12.30;99.90
5705;DHT22;2877;48.238;11.160;2023-11-19T15:01:06;12.30;99.90
5705;DHT22;2877;48.238;11.160;2023-11-19T15:03:33;12.20;99.90
5705;DHT22;2877;48.238;11.160;2023-11-19T15:05:58;12.10;99.90
5705;DHT22;2877;48.238;11.160;2023-11-19T15:08:25;12.10;99.90
5705;DHT22;2877;48.238;11.160;2023-11-19T15:10:50;12.00;99.90
5705;DHT22;2877;48.238;11.160;2023-11-19T15:13:16;11.90;99.90
5705;DHT22;2877;48.238;11.160;2023-11-19T15:15:41;11.90;99.90
5705;DHT22;2877;48.238;11.160;2023-11-19T15:18:07;11.80;99.90
5705;DHT22;2877;48.238;11.160;2023-11-19T15:20:32;11.80;99.90
5705;DHT22;2877;48.238;11.160;2023-11-19T15:22:58;11.70;99.90
5705;DHT22;2877;48.238;11.160;2023-11-19T15:25:24;11.70;99.90
5705;DHT22;2877;48.238;11.160;2023-11-19T15:27:50;11.70;99.90
5705;DHT22;2877;48.238;11.160;2023-11-19T15:30:15;11.50;99.90
5705;DHT22;2877;48.238;11.160;2023-11-19T15:32:42;11.50;99.90
5705;DHT22;2877;48.238;11.160;2023-11-19T15:35:09;11.40;99.90
5705;DHT22;2877;48.238;11.160;2023-11-19T15:37:36;11.30;99.90
5705;DHT22;2877;48.238;11.160;2023-11-19T15:40:03;11.30;99.90
5705;DHT22;2877;48.238;11.160;2023-11-19T15:42:31;11.30;99.90
5705;DHT22;2877;48.238;11.160;2023-11-19T15:44:57;11.30;99.90
5705;DHT22;2877;48.238;11.160;2023-11-19T15:47:22;11.30;99.90
5705;DHT22;2877;48.238;11.160;2023-11-19T15:49:48;11.30;99.90
5705;DHT22;2877;48.238;11.160;2023-11-19T15:52:15;11.20;99.90
5705;DHT22;2877;48.238;11.160;2023-11-19T15:54:41;11.20;99.90
5705;DHT22;2877;48.238;11.160;2023-11-19T15:57:07;11.20;99.90
5705;DHT22;2877;48.238;11.160;2023-11-19T15:59:33;11.20;99.90
5705;DHT22;2877;48.238;11.160;2023-11-19T16:01:58;11.30;99.90
5705;DHT22;2877;48.238;11.160;2023-11-19T16:04:24;11.30;99.90
5705;DHT22;2877;48.238;11.160;2023-11-19T16:06:50;11.30;99.90
5705;DHT22;2877;48.238;11.160;2023-11-19T16:09:15;11.30;99.90
5705;DHT22;2877;48.238;11.160;2023-11-19T16:11:44;11.20;99.90
5705;DHT22;2877;48.238;11.160;2023-11-19T16:14:11;11.20;99.90
5705;DHT22;2877;48.238;11.160;2023-11-19T16:16:37;11.20;99.90